createdAt,value
2022-09-09T00:00:25.948Z,5.20
2022-09-09T00:03:04.809Z,4.60
2022-09-09T00:05:47.082Z,4.30
2022-09-09T00:08:20.876Z,4.70
2022-09-09T00:10:50.812Z,5.80
2022-09-09T00:13:21.958Z,4.80
2022-09-09T00:16:05.255Z,4.50
2022-09-09T00:19:01.943Z,4.90
2022-09-09T00:21:38.206Z,5.00
2022-09-09T00:24:33.314Z,4.50
2022-09-09T00:27:34.051Z,4.50
2022-09-09T00:30:15.154Z,4.70
2022-09-09T00:32:46.298Z,4.30
2022-09-09T00:35:23.369Z,4.80
2022-09-09T00:37:55.223Z,5.10
2022-09-09T00:40:25.361Z,5.10
2022-09-09T00:43:18.227Z,5.30
2022-09-09T00:46:27.295Z,4.80
2022-09-09T00:49:06.607Z,6.10
2022-09-09T00:52:05.599Z,5.00
2022-09-09T00:54:47.397Z,4.50
2022-09-09T00:57:20.627Z,5.20
2022-09-09T00:59:50.304Z,5.70
2022-09-09T01:02:32.687Z,5.10
2022-09-09T01:05:07.348Z,5.20
2022-09-09T01:07:35.428Z,5.60
2022-09-09T01:10:04.630Z,5.50
2022-09-09T01:12:39.360Z,5.30
2022-09-09T01:15:11.224Z,5.00
2022-09-09T01:18:02.746Z,5.30
2022-09-09T01:20:40.372Z,5.90
2022-09-09T01:23:36.080Z,5.40
2022-09-09T01:26:28.316Z,5.00
2022-09-09T01:28:56.088Z,5.20
2022-09-09T01:31:28.779Z,5.20
2022-09-09T01:33:56.140Z,5.60
2022-09-09T01:36:34.863Z,5.80
2022-09-09T01:39:03.089Z,5.70
2022-09-09T01:41:31.428Z,5.40
2022-09-09T01:43:58.783Z,5.50
2022-09-09T01:46:26.082Z,6.30
2022-09-09T01:48:57.083Z,5.80
2022-09-09T01:51:23.882Z,5.50
2022-09-09T01:53:50.777Z,5.60
2022-09-09T01:56:56.867Z,5.80
2022-09-09T01:59:48.474Z,5.30
2022-09-09T02:02:20.131Z,5.50
2022-09-09T02:04:59.578Z,5.60
2022-09-09T02:07:43.424Z,5.50
2022-09-09T02:10:12.638Z,5.30
2022-09-09T02:12:42.353Z,6.00
2022-09-09T02:15:16.358Z,5.50
2022-09-09T02:17:43.927Z,5.40
2022-09-09T02:20:15.492Z,5.40
2022-09-09T02:22:45.380Z,5.20
2022-09-09T02:25:15.626Z,5.20
2022-09-09T02:27:42.583Z,6.00
2022-09-09T02:30:10.303Z,5.20
2022-09-09T02:32:37.511Z,4.80
2022-09-09T02:35:09.893Z,4.90
2022-09-09T02:37:38.992Z,5.10
2022-09-09T02:40:07.192Z,4.80
2022-09-09T02:42:41.858Z,5.10
2022-09-09T02:45:10.338Z,5.60
2022-09-09T02:47:40.144Z,5.10
2022-09-09T02:50:19.032Z,5.20
2022-09-09T02:53:05.237Z,5.20
2022-09-09T02:55:58.605Z,4.80
2022-09-09T02:58:26.467Z,5.30
2022-09-09T03:00:54.251Z,5.50
2022-09-09T03:03:21.996Z,5.20
2022-09-09T03:05:48.862Z,6.00
2022-09-09T03:08:15.688Z,5.90
2022-09-09T03:10:42.738Z,5.70
2022-09-09T03:13:10.405Z,5.00
2022-09-09T03:15:38.484Z,5.00
2022-09-09T03:18:05.420Z,5.30
2022-09-09T03:20:33.085Z,4.90
2022-09-09T03:23:00.548Z,4.60
2022-09-09T03:25:27.599Z,5.60
2022-09-09T03:27:56.057Z,5.90
2022-09-09T03:30:24.126Z,5.70
2022-09-09T03:32:52.219Z,5.80
2022-09-09T03:35:19.599Z,6.00
2022-09-09T03:37:46.555Z,6.40
2022-09-09T03:40:13.573Z,6.40
2022-09-09T03:42:40.663Z,6.40
2022-09-09T03:45:10.159Z,6.40
2022-09-09T03:47:37.021Z,6.10
2022-09-09T03:50:05.750Z,6.10
2022-09-09T03:52:32.537Z,6.90
2022-09-09T03:54:59.538Z,6.30
2022-09-09T03:57:26.470Z,7.20
2022-09-09T03:59:53.220Z,6.90
2022-09-09T04:02:20.142Z,7.30
2022-09-09T04:04:47.324Z,6.50
2022-09-09T04:07:14.383Z,7.30
2022-09-09T04:09:41.223Z,7.70
2022-09-09T04:12:08.072Z,7.40
2022-09-09T04:14:35.020Z,7.00
2022-09-09T04:17:01.851Z,7.20
2022-09-09T04:19:29.267Z,7.00
2022-09-09T04:21:56.180Z,6.60
2022-09-09T04:24:23.337Z,7.00
2022-09-09T04:26:50.195Z,6.70
2022-09-09T04:29:17.386Z,7.40
2022-09-09T04:31:44.270Z,7.10
2022-09-09T04:34:11.435Z,7.30
2022-09-09T04:36:41.511Z,7.70
2022-09-09T04:39:08.535Z,7.20
2022-09-09T04:41:36.670Z,7.50
2022-09-09T04:44:04.075Z,7.80
2022-09-09T04:46:30.853Z,7.10
2022-09-09T04:48:57.600Z,7.10
2022-09-09T04:51:24.551Z,8.50
2022-09-09T04:53:52.217Z,8.30
2022-09-09T04:56:19.165Z,8.00
2022-09-09T04:58:47.339Z,8.00
2022-09-09T05:01:16.353Z,8.20
2022-09-09T05:03:43.388Z,8.10
2022-09-09T05:06:12.579Z,8.20
2022-09-09T05:08:40.142Z,8.20
2022-09-09T05:11:19.479Z,7.20
2022-09-09T05:13:47.038Z,6.30
2022-09-09T05:16:15.266Z,6.60
2022-09-09T05:18:47.316Z,6.50
2022-09-09T05:21:15.655Z,5.70
2022-09-09T05:23:42.499Z,5.40
2022-09-09T05:26:17.049Z,5.40
2022-09-09T05:28:44.587Z,7.10
2022-09-09T05:31:15.107Z,6.50
2022-09-09T05:33:44.161Z,5.60
2022-09-09T05:36:14.447Z,5.60
2022-09-09T05:38:41.803Z,4.10
2022-09-09T05:41:08.854Z,4.80
2022-09-09T05:43:37.242Z,5.10
2022-09-09T05:46:09.301Z,4.70
2022-09-09T05:48:40.977Z,7.60
2022-09-09T05:51:09.648Z,6.90
2022-09-09T05:53:36.617Z,4.00
2022-09-09T05:56:08.656Z,3.40
2022-09-09T05:58:35.761Z,3.50
2022-09-09T06:01:11.111Z,3.30
2022-09-09T06:03:39.264Z,3.90
2022-09-09T06:06:08.008Z,3.40
2022-09-09T06:08:35.629Z,3.70
2022-09-09T06:11:07.080Z,3.90
2022-09-09T06:13:34.559Z,3.30
2022-09-09T06:16:02.039Z,3.40
2022-09-09T06:18:29.187Z,3.00
2022-09-09T06:20:59.983Z,2.70
2022-09-09T06:23:27.631Z,3.00
2022-09-09T06:26:06.876Z,3.20
2022-09-09T06:28:37.852Z,3.20
2022-09-09T06:31:11.266Z,3.00
2022-09-09T06:33:42.630Z,3.00
2022-09-09T06:36:16.362Z,3.50
2022-09-09T06:38:43.920Z,2.70
2022-09-09T06:41:11.786Z,3.00
2022-09-09T06:43:38.627Z,2.70
2022-09-09T06:46:06.727Z,2.50
2022-09-09T06:48:33.956Z,2.70
2022-09-09T06:51:19.123Z,2.20
2022-09-09T06:53:47.122Z,2.20
2022-09-09T06:56:32.401Z,2.60
2022-09-09T06:59:02.089Z,2.20
2022-09-09T07:01:30.313Z,2.30
2022-09-09T07:03:58.667Z,2.40
2022-09-09T07:06:30.206Z,2.00
2022-09-09T07:08:58.994Z,1.90
2022-09-09T07:11:31.063Z,2.10
2022-09-09T07:13:58.420Z,2.50
2022-09-09T07:16:26.056Z,2.20
2022-09-09T07:18:53.743Z,2.40
2022-09-09T07:21:22.133Z,2.20
2022-09-09T07:23:49.891Z,2.50
2022-09-09T07:26:21.542Z,2.30
2022-09-09T07:28:48.871Z,2.20
2022-09-09T07:31:27.416Z,2.10
2022-09-09T07:33:55.177Z,1.80
2022-09-09T07:36:23.246Z,2.00
2022-09-09T07:38:53.158Z,2.10
2022-09-09T07:41:33.510Z,1.70
2022-09-09T07:44:01.402Z,1.80
2022-09-09T07:46:30.044Z,1.90
2022-09-09T07:48:57.962Z,2.00
2022-09-09T07:51:36.981Z,1.90
2022-09-09T07:54:06.326Z,1.90
2022-09-09T07:56:34.382Z,1.70
2022-09-09T07:59:02.378Z,1.80
2022-09-09T08:01:32.178Z,1.70
2022-09-09T08:04:05.170Z,1.80
2022-09-09T08:06:36.697Z,1.50
2022-09-09T08:09:05.181Z,1.80
2022-09-09T08:11:39.031Z,1.50
2022-09-09T08:14:11.366Z,1.80
2022-09-09T08:16:45.183Z,6.00
2022-09-09T08:19:13.152Z,2.30
2022-09-09T08:21:45.228Z,2.10
2022-09-09T08:24:15.450Z,3.20
2022-09-09T08:26:45.725Z,2.60
2022-09-09T08:29:16.216Z,2.60
2022-09-09T08:31:45.607Z,3.80
2022-09-09T08:34:14.097Z,2.10
2022-09-09T08:36:44.307Z,3.00
2022-09-09T08:39:15.458Z,2.50
2022-09-09T08:42:21.127Z,1.80
2022-09-09T08:45:13.499Z,2.00
2022-09-09T08:47:54.255Z,1.80
2022-09-09T08:50:22.759Z,2.40
2022-09-09T08:53:23.264Z,2.50
2022-09-09T08:56:05.214Z,2.40
2022-09-09T08:58:37.838Z,2.30
2022-09-09T09:01:29.345Z,2.10
2022-09-09T09:04:31.711Z,3.90
2022-09-09T09:07:13.837Z,2.10
2022-09-09T09:10:01.721Z,2.20
2022-09-09T09:12:44.030Z,1.90
2022-09-09T09:15:28.318Z,1.90
2022-09-09T09:17:58.719Z,1.80
2022-09-09T09:21:01.221Z,2.20
2022-09-09T09:23:36.470Z,2.10
2022-09-09T09:26:03.701Z,2.20
2022-09-09T09:28:32.015Z,1.60
2022-09-09T09:31:10.493Z,2.40
2022-09-09T09:33:51.586Z,2.00
2022-09-09T09:36:18.431Z,2.40
2022-09-09T09:41:48.183Z,2.20
2022-09-09T09:44:26.087Z,2.00
2022-09-09T09:46:53.016Z,2.60
2022-09-09T09:49:19.981Z,2.20
2022-09-09T09:51:48.259Z,1.80
2022-09-09T09:54:30.072Z,2.00
2022-09-09T09:56:57.107Z,1.70
2022-09-09T09:59:39.360Z,2.00
2022-09-09T10:02:27.734Z,1.70
2022-09-09T10:05:27.489Z,2.30
2022-09-09T10:10:51.260Z,1.90
2022-09-09T10:13:25.077Z,1.80
2022-09-09T10:16:19.642Z,2.10
2022-09-09T10:18:58.943Z,2.00
2022-09-09T10:21:47.816Z,1.50
2022-09-09T10:24:20.286Z,2.10
2022-09-09T10:27:14.065Z,2.40
2022-09-09T10:30:10.703Z,1.80
2022-09-09T10:32:47.887Z,2.10
2022-09-09T10:35:41.047Z,1.90
2022-09-09T10:38:31.078Z,2.00
2022-09-09T10:40:57.980Z,2.20
2022-09-09T10:43:34.846Z,2.10
2022-09-09T10:46:18.257Z,2.10
2022-09-09T10:48:52.404Z,2.00
2022-09-09T10:51:24.517Z,2.00
2022-09-09T10:54:09.789Z,2.00
2022-09-09T10:56:37.208Z,2.60
2022-09-09T10:59:12.138Z,2.40
2022-09-09T11:02:01.613Z,2.00
2022-09-09T11:04:33.520Z,1.80
2022-09-09T11:07:01.344Z,2.10
2022-09-09T11:09:30.472Z,2.00
2022-09-09T11:11:59.063Z,1.90
2022-09-09T11:14:36.922Z,2.10
2022-09-09T11:17:25.888Z,2.50
2022-09-09T11:19:53.137Z,2.10
2022-09-09T11:22:39.826Z,2.20
2022-09-09T11:25:11.563Z,2.10
2022-09-09T11:27:54.530Z,1.90
2022-09-09T11:33:27.539Z,2.20
2022-09-09T11:36:09.549Z,1.90
2022-09-09T11:38:47.671Z,2.10
2022-09-09T11:41:20.867Z,2.20
2022-09-09T11:43:51.603Z,2.10
2022-09-09T11:46:36.774Z,1.80
2022-09-09T11:49:08.458Z,1.70
2022-09-09T11:51:48.879Z,2.30
2022-09-09T11:54:30.969Z,3.60
2022-09-09T11:56:58.419Z,3.80
2022-09-09T11:59:34.886Z,5.80
2022-09-09T12:02:33.019Z,5.80
2022-09-09T12:05:16.937Z,3.00
2022-09-09T12:07:59.432Z,2.20
2022-09-09T12:10:39.880Z,1.50
2022-09-09T12:13:16.554Z,2.30
2022-09-09T12:15:51.797Z,2.00
2022-09-09T12:18:42.516Z,1.70
2022-09-09T12:21:19.704Z,1.70
2022-09-09T12:24:00.246Z,1.20
2022-09-09T12:26:37.932Z,2.20
2022-09-09T12:29:34.818Z,1.40
2022-09-09T12:32:07.883Z,1.60
2022-09-09T12:35:04.318Z,1.60
2022-09-09T12:37:39.167Z,1.40
2022-09-09T12:40:20.228Z,1.50
2022-09-09T12:42:48.098Z,1.30
2022-09-09T12:45:18.444Z,1.60
2022-09-09T12:48:00.840Z,1.70
2022-09-09T12:50:33.974Z,1.70
2022-09-09T12:53:05.791Z,1.30
2022-09-09T12:55:35.748Z,1.50
2022-09-09T12:58:06.167Z,1.60
2022-09-09T13:00:35.034Z,1.50
2022-09-09T13:03:04.947Z,1.50
2022-09-09T13:05:37.936Z,2.10
2022-09-09T13:08:08.894Z,2.20
2022-09-09T13:10:52.841Z,1.60
2022-09-09T13:13:27.930Z,2.20
2022-09-09T13:16:04.484Z,1.60
2022-09-09T13:18:43.395Z,1.50
2022-09-09T13:21:11.454Z,1.50
2022-09-09T13:23:39.154Z,1.50
2022-09-09T13:26:09.194Z,1.20
2022-09-09T13:28:36.807Z,1.50
2022-09-09T13:31:06.109Z,1.50
2022-09-09T13:33:38.429Z,1.60
2022-09-09T13:36:10.046Z,1.60
2022-09-09T13:38:54.403Z,1.80
2022-09-09T13:41:34.359Z,1.50
2022-09-09T13:44:01.822Z,1.20
2022-09-09T13:46:34.809Z,1.50
2022-09-09T13:49:02.884Z,1.60
2022-09-09T13:51:40.789Z,1.20
2022-09-09T13:54:08.557Z,1.30
2022-09-09T13:56:36.427Z,1.40
2022-09-09T13:59:04.505Z,1.90
2022-09-09T14:01:32.544Z,1.50
2022-09-09T14:04:00.140Z,1.10
2022-09-09T14:06:27.605Z,1.60
2022-09-09T14:08:55.985Z,1.30
2022-09-09T14:11:23.342Z,1.70
2022-09-09T14:13:53.056Z,2.50
2022-09-09T14:16:20.071Z,1.60
2022-09-09T14:18:47.572Z,1.60
2022-09-09T14:21:14.412Z,1.80
2022-09-09T14:23:41.788Z,1.40
2022-09-09T14:26:09.546Z,1.80
2022-09-09T14:28:54.384Z,1.70
2022-09-09T14:31:23.012Z,2.00
2022-09-09T14:33:49.853Z,2.30
2022-09-09T14:36:16.905Z,1.30
2022-09-09T14:38:44.367Z,1.60
2022-09-09T14:41:17.986Z,1.40
2022-09-09T14:43:46.044Z,1.20
2022-09-09T14:46:15.143Z,1.40
2022-09-09T14:48:42.459Z,2.00
2022-09-09T14:51:11.011Z,2.00
2022-09-09T14:53:38.881Z,1.60
2022-09-09T14:56:07.728Z,2.30
2022-09-09T14:58:36.005Z,1.50
2022-09-09T15:01:13.337Z,1.70
2022-09-09T15:03:42.184Z,1.70
2022-09-09T15:06:11.099Z,1.40
2022-09-09T15:08:42.285Z,1.40
2022-09-09T15:11:14.187Z,1.50
2022-09-09T15:13:42.378Z,1.50
2022-09-09T15:16:11.706Z,1.90
2022-09-09T15:18:43.992Z,1.70
2022-09-09T15:21:15.635Z,1.60
2022-09-09T15:23:42.654Z,1.70
2022-09-09T15:26:10.319Z,1.70
2022-09-09T15:28:38.799Z,2.10
2022-09-09T15:31:18.706Z,1.80
2022-09-09T15:34:14.802Z,1.90
2022-09-09T15:36:45.402Z,1.70
2022-09-09T15:39:14.033Z,1.80
2022-09-09T15:41:40.933Z,2.10
2022-09-09T15:44:08.053Z,2.00
2022-09-09T15:46:39.610Z,2.00
2022-09-09T15:49:07.911Z,2.30
2022-09-09T15:51:43.603Z,2.40
2022-09-09T15:54:14.384Z,1.70
2022-09-09T15:56:42.162Z,2.20
2022-09-09T15:59:09.515Z,2.10
2022-09-09T16:01:37.527Z,2.40
2022-09-09T16:04:05.152Z,2.10
2022-09-09T16:06:32.102Z,2.40
2022-09-09T16:08:59.456Z,2.40
2022-09-09T16:11:28.248Z,2.90
2022-09-09T16:13:55.809Z,2.20
2022-09-09T16:16:27.980Z,2.20
2022-09-09T16:18:56.462Z,2.30
2022-09-09T16:21:30.332Z,2.50
2022-09-09T16:23:58.243Z,2.50
2022-09-09T16:26:25.391Z,3.00
2022-09-09T16:28:52.338Z,2.80
2022-09-09T16:31:21.405Z,2.60
2022-09-09T16:33:48.890Z,2.40
2022-09-09T16:36:20.546Z,2.70
2022-09-09T16:38:47.388Z,2.40
2022-09-09T16:41:15.177Z,2.40
2022-09-09T16:43:42.403Z,2.50
2022-09-09T16:46:19.811Z,2.30
2022-09-09T16:48:47.758Z,2.30
2022-09-09T16:51:17.060Z,2.80
2022-09-09T16:53:44.411Z,2.80
2022-09-09T16:56:18.632Z,2.40
2022-09-09T16:58:49.670Z,2.20
2022-09-09T17:01:16.664Z,2.30
2022-09-09T17:03:43.767Z,2.40
2022-09-09T17:06:14.610Z,2.60
2022-09-09T17:08:44.888Z,2.60
2022-09-09T17:11:15.560Z,2.30
2022-09-09T17:13:46.339Z,2.40
2022-09-09T17:16:15.426Z,2.60
2022-09-09T17:18:43.460Z,2.70
2022-09-09T17:21:15.063Z,2.40
2022-09-09T17:23:42.268Z,3.10
2022-09-09T17:26:11.369Z,2.50
2022-09-09T17:28:39.564Z,2.40
2022-09-09T17:31:11.444Z,2.50
2022-09-09T17:33:40.050Z,2.30
2022-09-09T17:36:12.331Z,2.30
2022-09-09T17:38:39.420Z,2.80
2022-09-09T17:41:07.980Z,2.70
2022-09-09T17:43:34.932Z,3.00
2022-09-09T17:46:15.160Z,3.20
2022-09-09T17:48:43.081Z,3.00
2022-09-09T17:51:12.273Z,3.00
2022-09-09T17:53:43.474Z,2.70
2022-09-09T17:56:11.606Z,2.90
2022-09-09T17:58:38.777Z,3.20
2022-09-09T18:01:10.349Z,3.00
2022-09-09T18:03:38.382Z,2.80
2022-09-09T18:06:05.958Z,2.90
2022-09-09T18:08:36.697Z,3.20
2022-09-09T18:11:04.366Z,3.30
2022-09-09T18:13:31.211Z,3.00
2022-09-09T18:15:58.858Z,2.90
2022-09-09T18:18:26.438Z,2.50
2022-09-09T18:21:01.875Z,2.70
2022-09-09T18:23:30.168Z,2.60
2022-09-09T18:25:59.162Z,3.00
2022-09-09T18:28:28.981Z,2.90
2022-09-09T18:30:56.015Z,2.80
2022-09-09T18:33:23.084Z,2.80
2022-09-09T18:35:50.036Z,3.30
2022-09-09T18:38:17.705Z,3.40
2022-09-09T18:40:44.587Z,3.50
2022-09-09T18:43:12.952Z,2.90
2022-09-09T18:45:39.783Z,3.30
2022-09-09T18:48:06.730Z,3.40
2022-09-09T18:50:34.371Z,3.00
2022-09-09T18:53:01.346Z,3.10
2022-09-09T18:55:29.322Z,3.20
2022-09-09T18:57:58.931Z,3.10
2022-09-09T19:00:26.593Z,3.30
2022-09-09T19:02:53.441Z,3.70
2022-09-09T19:05:22.917Z,3.80
2022-09-09T19:07:51.129Z,3.70
2022-09-09T19:10:18.100Z,3.60
2022-09-09T19:12:45.232Z,4.10
2022-09-09T19:15:12.279Z,3.90
2022-09-09T19:17:39.538Z,3.70
2022-09-09T19:20:09.201Z,3.80
2022-09-09T19:22:36.298Z,4.00
2022-09-09T19:25:04.165Z,3.90
2022-09-09T19:27:31.122Z,3.70
2022-09-09T19:29:58.365Z,3.30
2022-09-09T19:35:12.224Z,3.90
2022-09-09T19:37:38.967Z,3.70
2022-09-09T19:40:08.466Z,3.90
2022-09-09T19:42:35.425Z,3.30
2022-09-09T19:45:02.478Z,4.00
2022-09-09T19:47:29.529Z,3.10
2022-09-09T19:49:56.430Z,3.20
2022-09-09T19:52:23.327Z,3.80
2022-09-09T19:54:50.269Z,3.20
2022-09-09T19:57:17.122Z,3.60
2022-09-09T19:59:44.192Z,5.20
2022-09-09T20:02:13.507Z,3.10
2022-09-09T20:04:40.427Z,3.50
2022-09-09T20:07:07.880Z,3.50
2022-09-09T20:09:34.868Z,3.00
2022-09-09T20:12:01.968Z,3.40
2022-09-09T20:14:29.139Z,3.00
2022-09-09T20:16:56.601Z,3.20
2022-09-09T20:19:23.657Z,3.80
2022-09-09T20:21:52.258Z,3.00
2022-09-09T20:24:20.423Z,3.70
2022-09-09T20:26:48.407Z,3.50
2022-09-09T20:29:17.739Z,3.80
2022-09-09T20:31:45.369Z,3.80
2022-09-09T20:34:14.725Z,3.40
2022-09-09T20:36:42.031Z,3.50
2022-09-09T20:39:10.935Z,3.60
2022-09-09T20:41:38.798Z,3.40
2022-09-09T20:44:19.509Z,3.80
2022-09-09T20:46:48.321Z,3.60
2022-09-09T20:49:19.409Z,4.10
2022-09-09T20:51:47.278Z,3.70
2022-09-09T20:54:16.168Z,3.40
2022-09-09T20:56:43.508Z,4.30
2022-09-09T20:59:15.411Z,3.80
2022-09-09T21:01:42.420Z,3.70
2022-09-09T21:04:09.897Z,3.50
2022-09-09T21:06:37.362Z,3.20
2022-09-09T21:09:04.819Z,3.10
2022-09-09T21:11:32.760Z,3.40
2022-09-09T21:13:59.846Z,3.00
2022-09-09T21:16:28.016Z,3.20
2022-09-09T21:18:54.859Z,3.30
2022-09-09T21:21:21.707Z,3.10
2022-09-09T21:23:49.471Z,3.80
2022-09-09T21:26:18.378Z,3.10
2022-09-09T21:28:45.617Z,3.80
2022-09-09T21:31:16.362Z,3.00
2022-09-09T21:33:43.508Z,3.30
2022-09-09T21:36:11.234Z,3.20
2022-09-09T21:38:40.269Z,3.40
2022-09-09T21:41:09.064Z,3.50
2022-09-09T21:43:35.901Z,3.70
2022-09-09T21:46:13.638Z,3.50
2022-09-09T21:48:40.551Z,3.70
2022-09-09T21:51:09.597Z,3.80
2022-09-09T21:53:36.698Z,3.60
2022-09-09T21:56:09.855Z,3.40
2022-09-09T21:58:36.785Z,3.70
2022-09-09T22:01:14.898Z,3.80
2022-09-09T22:03:42.857Z,3.50
2022-09-09T22:06:11.673Z,4.20
2022-09-09T22:08:38.669Z,3.60
2022-09-09T22:11:10.801Z,3.60
2022-09-09T22:13:38.530Z,3.50
2022-09-09T22:16:09.532Z,3.50
2022-09-09T22:18:37.013Z,4.40
2022-09-09T22:21:11.830Z,3.70
2022-09-09T22:23:38.780Z,4.10
2022-09-09T22:26:06.035Z,4.40
2022-09-09T22:28:33.999Z,3.20
2022-09-09T22:31:01.214Z,3.60
2022-09-09T22:33:28.203Z,3.50
2022-09-09T22:35:55.051Z,3.30
2022-09-09T22:38:22.526Z,3.80
2022-09-09T22:40:49.769Z,3.50
2022-09-09T22:43:18.350Z,3.40
2022-09-09T22:45:45.919Z,3.70
2022-09-09T22:48:13.405Z,3.80
2022-09-09T22:50:42.531Z,3.30
2022-09-09T22:53:10.883Z,3.50
2022-09-09T22:55:37.704Z,4.10
2022-09-09T22:58:04.549Z,3.40
2022-09-09T23:00:31.495Z,3.80
2022-09-09T23:02:58.443Z,3.80
2022-09-09T23:05:27.699Z,3.40
2022-09-09T23:07:58.652Z,3.60
2022-09-09T23:10:25.815Z,3.60
2022-09-09T23:12:52.593Z,3.80
2022-09-09T23:15:19.979Z,3.50
2022-09-09T23:17:46.793Z,3.70
2022-09-09T23:20:13.769Z,3.80
2022-09-09T23:22:40.663Z,3.50
2022-09-09T23:25:07.938Z,4.70
2022-09-09T23:27:35.785Z,3.80
2022-09-09T23:30:02.770Z,3.90
2022-09-09T23:32:29.513Z,4.20
2022-09-09T23:34:56.665Z,3.70
2022-09-09T23:37:23.511Z,4.10
2022-09-09T23:39:50.387Z,3.90
2022-09-09T23:42:17.204Z,4.10
2022-09-09T23:44:44.053Z,3.80
2022-09-09T23:47:10.799Z,4.30
2022-09-09T23:49:40.518Z,4.40
2022-09-09T23:52:07.360Z,4.00
2022-09-09T23:54:34.723Z,4.30
2022-09-09T23:57:03.289Z,4.20
2022-09-09T23:59:31.281Z,4.40
